map of TAF home
Great Circle Mapper logo
TAF - Airport
Location
City:  Oran, Algeria
Name:Tafaraoui
ICAO / IATA:DAOL / TAF

Details
Type:Airport (Aerodrome, Airfield)
Use:Military
Latitude:3532'33"N (35.542444)
Longitude:031'56"W (-0.532277)
Datum:WGS 1984
Elevation:367 ft (112 m)
Variation:0.11W (WMM2015 magnetic declination)
0.11 annual change
Runways:1
Longest:9037 × 140 ft (2754 × 42.5 m), paved

Time
Time Zone:UTC+1
Local Time:

Weather
METAR:DAOL 262100Z 25014KT 9999 SCT026 SCT200 19/14 Q1015

Related Locations
Nearby:
Farthest:NZOP: 12225 mi / 19674 km
Opotiki, NZ

Find:

   beyond  
but within

Other Information
Maps:
NOTAMs:
Links:
Sources:

  
flag of Algeria   

Sectional Chart

Flight Planning
at skyvector.com

Satellite Image

Google Maps Satellite View

 

Copyright © 2004-2015 Karl L. Swartz. All rights reserved.
The Great Circle Mapper name and logo are trademarks of the Great Circle Mapper.
All other trademarks mentioned herein belong to their respective owners.
Please see credits for attibutions and further copyright information.

  Follow gcmap on Facebook Follow gcmap on Twitter Follow gcmap on Google+

hCard Microformat

Geo Microformat